sensor_id;sensor_type;location;lat;lon;timestamp;P1;durP1;ratioP1;P2;durP2;ratioP2
73100;SDS011;61288;53.446;-2.266;2022-12-29T00:00:08;7.80;;;1.80;;
73100;SDS011;61288;53.446;-2.266;2022-12-29T00:02:35;12.07;;;1.50;;
73100;SDS011;61288;53.446;-2.266;2022-12-29T00:05:01;14.93;;;1.70;;
73100;SDS011;61288;53.446;-2.266;2022-12-29T00:07:26;13.32;;;1.63;;
73100;SDS011;61288;53.446;-2.266;2022-12-29T00:09:52;9.70;;;2.00;;
73100;SDS011;61288;53.446;-2.266;2022-12-29T00:12:18;8.60;;;1.75;;
73100;SDS011;61288;53.446;-2.266;2022-12-29T00:14:43;8.85;;;1.67;;
73100;SDS011;61288;53.446;-2.266;2022-12-29T00:17:27;11.15;;;1.60;;
73100;SDS011;61288;53.446;-2.266;2022-12-29T00:19:53;13.23;;;2.05;;
73100;SDS011;61288;53.446;-2.266;2022-12-29T00:22:37;13.00;;;1.80;;
73100;SDS011;61288;53.446;-2.266;2022-12-29T00:25:21;13.20;;;1.73;;
73100;SDS011;61288;53.446;-2.266;2022-12-29T00:28:07;11.50;;;2.30;;
73100;SDS011;61288;53.446;-2.266;2022-12-29T00:30:52;9.35;;;1.63;;
73100;SDS011;61288;53.446;-2.266;2022-12-29T00:33:36;12.43;;;1.88;;
73100;SDS011;61288;53.446;-2.266;2022-12-29T00:38:56;11.32;;;2.25;;
73100;SDS011;61288;53.446;-2.266;2022-12-29T00:41:44;17.65;;;2.20;;
73100;SDS011;61288;53.446;-2.266;2022-12-29T00:44:28;12.82;;;1.75;;
73100;SDS011;61288;53.446;-2.266;2022-12-29T00:46:53;12.25;;;1.65;;
73100;SDS011;61288;53.446;-2.266;2022-12-29T00:49:19;13.25;;;2.22;;
73100;SDS011;61288;53.446;-2.266;2022-12-29T00:52:04;12.00;;;2.30;;
73100;SDS011;61288;53.446;-2.266;2022-12-29T00:54:34;3.55;;;1.10;;
73100;SDS011;61288;53.446;-2.266;2022-12-29T00:57:01;3.78;;;0.75;;
73100;SDS011;61288;53.446;-2.266;2022-12-29T00:59:29;7.35;;;1.05;;
73100;SDS011;61288;53.446;-2.266;2022-12-29T01:01:55;4.53;;;1.05;;
73100;SDS011;61288;53.446;-2.266;2022-12-29T01:04:22;4.05;;;0.90;;
73100;SDS011;61288;53.446;-2.266;2022-12-29T01:06:49;4.40;;;1.08;;
73100;SDS011;61288;53.446;-2.266;2022-12-29T01:09:15;5.55;;;1.08;;
73100;SDS011;61288;53.446;-2.266;2022-12-29T01:12:02;4.05;;;1.20;;
73100;SDS011;61288;53.446;-2.266;2022-12-29T01:14:29;7.88;;;1.10;;
73100;SDS011;61288;53.446;-2.266;2022-12-29T01:16:55;9.63;;;1.50;;
73100;SDS011;61288;53.446;-2.266;2022-12-29T01:19:21;7.10;;;1.60;;
73100;SDS011;61288;53.446;-2.266;2022-12-29T01:21:47;4.57;;;0.88;;
73100;SDS011;61288;53.446;-2.266;2022-12-29T01:24:13;6.03;;;1.00;;
73100;SDS011;61288;53.446;-2.266;2022-12-29T01:26:40;5.55;;;1.30;;
73100;SDS011;61288;53.446;-2.266;2022-12-29T01:29:06;7.30;;;1.17;;
73100;SDS011;61288;53.446;-2.266;2022-12-29T01:31:31;5.70;;;1.17;;
73100;SDS011;61288;53.446;-2.266;2022-12-29T01:33:57;3.33;;;0.90;;
73100;SDS011;61288;53.446;-2.266;2022-12-29T01:36:23;4.75;;;0.80;;
73100;SDS011;61288;53.446;-2.266;2022-12-29T01:38:49;4.95;;;1.20;;
73100;SDS011;61288;53.446;-2.266;2022-12-29T01:41:15;5.70;;;1.10;;
73100;SDS011;61288;53.446;-2.266;2022-12-29T01:43:42;5.38;;;1.02;;
73100;SDS011;61288;53.446;-2.266;2022-12-29T01:54:25;5.82;;;1.00;;
73100;SDS011;61288;53.446;-2.266;2022-12-29T01:56:55;4.22;;;1.13;;
73100;SDS011;61288;53.446;-2.266;2022-12-29T01:59:25;3.05;;;0.85;;
73100;SDS011;61288;53.446;-2.266;2022-12-29T02:01:56;5.63;;;1.45;;
73100;SDS011;61288;53.446;-2.266;2022-12-29T02:04:23;1.95;;;0.93;;
73100;SDS011;61288;53.446;-2.266;2022-12-29T02:06:52;3.95;;;1.00;;
73100;SDS011;61288;53.446;-2.266;2022-12-29T02:09:20;8.95;;;1.20;;
73100;SDS011;61288;53.446;-2.266;2022-12-29T02:11:48;3.92;;;1.13;;
73100;SDS011;61288;53.446;-2.266;2022-12-29T02:14:15;6.55;;;1.38;;
73100;SDS011;61288;53.446;-2.266;2022-12-29T02:16:57;6.18;;;1.15;;
73100;SDS011;61288;53.446;-2.266;2022-12-29T02:28:44;5.15;;;1.10;;
73100;SDS011;61288;53.446;-2.266;2022-12-29T02:41:46;4.78;;;1.15;;
73100;SDS011;61288;53.446;-2.266;2022-12-29T02:52:03;7.47;;;1.30;;
73100;SDS011;61288;53.446;-2.266;2022-12-29T02:57:15;3.38;;;1.17;;
73100;SDS011;61288;53.446;-2.266;2022-12-29T02:59:47;5.88;;;1.13;;
73100;SDS011;61288;53.446;-2.266;2022-12-29T03:21:39;4.97;;;1.20;;
73100;SDS011;61288;53.446;-2.266;2022-12-29T03:24:45;10.13;;;1.80;;
73100;SDS011;61288;53.446;-2.266;2022-12-29T03:27:38;8.68;;;1.70;;
73100;SDS011;61288;53.446;-2.266;2022-12-29T03:30:19;7.53;;;1.50;;
73100;SDS011;61288;53.446;-2.266;2022-12-29T03:32:50;6.07;;;1.13;;
73100;SDS011;61288;53.446;-2.266;2022-12-29T03:35:26;4.00;;;1.05;;
73100;SDS011;61288;53.446;-2.266;2022-12-29T03:37:58;3.70;;;1.10;;
73100;SDS011;61288;53.446;-2.266;2022-12-29T03:40:36;3.30;;;1.10;;
73100;SDS011;61288;53.446;-2.266;2022-12-29T03:43:08;5.80;;;1.88;;
73100;SDS011;61288;53.446;-2.266;2022-12-29T03:45:36;4.78;;;1.20;;
73100;SDS011;61288;53.446;-2.266;2022-12-29T03:48:03;4.93;;;1.23;;
73100;SDS011;61288;53.446;-2.266;2022-12-29T03:50:29;6.15;;;1.45;;
73100;SDS011;61288;53.446;-2.266;2022-12-29T03:52:55;8.35;;;1.60;;
73100;SDS011;61288;53.446;-2.266;2022-12-29T03:55:21;8.05;;;2.13;;
73100;SDS011;61288;53.446;-2.266;2022-12-29T03:57:46;8.75;;;2.30;;
73100;SDS011;61288;53.446;-2.266;2022-12-29T04:00:12;4.82;;;1.20;;
73100;SDS011;61288;53.446;-2.266;2022-12-29T04:03:00;6.47;;;1.73;;
73100;SDS011;61288;53.446;-2.266;2022-12-29T04:05:26;5.25;;;1.25;;
73100;SDS011;61288;53.446;-2.266;2022-12-29T04:07:51;6.55;;;1.45;;
73100;SDS011;61288;53.446;-2.266;2022-12-29T04:10:17;6.35;;;1.55;;
73100;SDS011;61288;53.446;-2.266;2022-12-29T04:12:43;8.85;;;1.63;;
73100;SDS011;61288;53.446;-2.266;2022-12-29T04:15:10;5.13;;;1.38;;
73100;SDS011;61288;53.446;-2.266;2022-12-29T04:17:36;6.03;;;1.63;;
73100;SDS011;61288;53.446;-2.266;2022-12-29T04:20:01;4.80;;;1.55;;
73100;SDS011;61288;53.446;-2.266;2022-12-29T04:22:46;8.85;;;1.55;;
73100;SDS011;61288;53.446;-2.266;2022-12-29T04:25:12;6.00;;;1.50;;
73100;SDS011;61288;53.446;-2.266;2022-12-29T04:27:42;9.77;;;1.73;;
73100;SDS011;61288;53.446;-2.266;2022-12-29T04:30:10;9.80;;;1.70;;
73100;SDS011;61288;53.446;-2.266;2022-12-29T04:32:35;6.75;;;1.40;;
73100;SDS011;61288;53.446;-2.266;2022-12-29T04:35:01;5.55;;;1.33;;
73100;SDS011;61288;53.446;-2.266;2022-12-29T04:37:27;10.95;;;1.73;;
73100;SDS011;61288;53.446;-2.266;2022-12-29T04:39:55;4.57;;;1.25;;
73100;SDS011;61288;53.446;-2.266;2022-12-29T04:42:20;10.45;;;1.58;;
73100;SDS011;61288;53.446;-2.266;2022-12-29T04:44:45;9.95;;;1.98;;
73100;SDS011;61288;53.446;-2.266;2022-12-29T04:47:11;8.85;;;1.80;;
73100;SDS011;61288;53.446;-2.266;2022-12-29T04:49:36;8.43;;;1.38;;
73100;SDS011;61288;53.446;-2.266;2022-12-29T04:52:02;3.97;;;1.20;;
73100;SDS011;61288;53.446;-2.266;2022-12-29T04:54:30;7.35;;;1.40;;
73100;SDS011;61288;53.446;-2.266;2022-12-29T04:56:57;8.90;;;1.38;;
73100;SDS011;61288;53.446;-2.266;2022-12-29T04:59:22;9.13;;;1.42;;
73100;SDS011;61288;53.446;-2.266;2022-12-29T05:01:48;7.60;;;1.35;;
73100;SDS011;61288;53.446;-2.266;2022-12-29T05:04:13;5.63;;;1.40;;
73100;SDS011;61288;53.446;-2.266;2022-12-29T05:06:39;4.85;;;1.30;;
73100;SDS011;61288;53.446;-2.266;2022-12-29T05:09:04;9.75;;;1.52;;
73100;SDS011;61288;53.446;-2.266;2022-12-29T05:11:30;9.48;;;1.33;;
73100;SDS011;61288;53.446;-2.266;2022-12-29T05:13:56;4.90;;;1.15;;
73100;SDS011;61288;53.446;-2.266;2022-12-29T05:16:22;7.45;;;1.40;;
73100;SDS011;61288;53.446;-2.266;2022-12-29T05:18:47;5.68;;;1.60;;
73100;SDS011;61288;53.446;-2.266;2022-12-29T05:21:13;4.13;;;1.08;;
73100;SDS011;61288;53.446;-2.266;2022-12-29T05:23:38;6.72;;;1.20;;
73100;SDS011;61288;53.446;-2.266;2022-12-29T05:26:04;10.90;;;1.75;;
73100;SDS011;61288;53.446;-2.266;2022-12-29T05:28:31;4.97;;;1.33;;
73100;SDS011;61288;53.446;-2.266;2022-12-29T05:33:32;8.68;;;1.23;;
73100;SDS011;61288;53.446;-2.266;2022-12-29T05:36:03;6.70;;;1.02;;
73100;SDS011;61288;53.446;-2.266;2022-12-29T05:38:41;7.80;;;1.23;;
73100;SDS011;61288;53.446;-2.266;2022-12-29T05:41:07;7.22;;;1.20;;
73100;SDS011;61288;53.446;-2.266;2022-12-29T05:43:34;5.43;;;1.15;;
73100;SDS011;61288;53.446;-2.266;2022-12-29T05:45:59;7.75;;;1.25;;
73100;SDS011;61288;53.446;-2.266;2022-12-29T05:48:25;4.70;;;1.08;;
73100;SDS011;61288;53.446;-2.266;2022-12-29T05:50:50;4.45;;;0.82;;
73100;SDS011;61288;53.446;-2.266;2022-12-29T05:53:17;6.75;;;1.10;;
73100;SDS011;61288;53.446;-2.266;2022-12-29T05:55:43;5.00;;;1.27;;
73100;SDS011;61288;53.446;-2.266;2022-12-29T05:58:11;7.72;;;0.95;;
73100;SDS011;61288;53.446;-2.266;2022-12-29T06:00:36;4.93;;;1.20;;
73100;SDS011;61288;53.446;-2.266;2022-12-29T06:03:01;4.38;;;1.00;;
73100;SDS011;61288;53.446;-2.266;2022-12-29T06:05:27;7.55;;;1.33;;
73100;SDS011;61288;53.446;-2.266;2022-12-29T06:07:52;4.38;;;0.95;;
73100;SDS011;61288;53.446;-2.266;2022-12-29T06:10:18;6.68;;;1.00;;
73100;SDS011;61288;53.446;-2.266;2022-12-29T06:12:43;4.75;;;1.35;;
73100;SDS011;61288;53.446;-2.266;2022-12-29T06:15:09;8.30;;;1.58;;
73100;SDS011;61288;53.446;-2.266;2022-12-29T06:17:35;4.47;;;1.13;;
73100;SDS011;61288;53.446;-2.266;2022-12-29T06:20:01;4.28;;;1.00;;
73100;SDS011;61288;53.446;-2.266;2022-12-29T06:22:26;1.85;;;0.90;;
73100;SDS011;61288;53.446;-2.266;2022-12-29T06:24:52;5.97;;;1.10;;
73100;SDS011;61288;53.446;-2.266;2022-12-29T06:27:17;4.55;;;1.50;;
73100;SDS011;61288;53.446;-2.266;2022-12-29T06:29:43;2.80;;;1.20;;
73100;SDS011;61288;53.446;-2.266;2022-12-29T06:32:08;4.07;;;1.10;;
73100;SDS011;61288;53.446;-2.266;2022-12-29T06:34:34;5.03;;;1.10;;
73100;SDS011;61288;53.446;-2.266;2022-12-29T06:37:00;5.00;;;1.02;;
73100;SDS011;61288;53.446;-2.266;2022-12-29T06:39:26;4.82;;;1.30;;
73100;SDS011;61288;53.446;-2.266;2022-12-29T06:41:52;5.40;;;0.73;;
73100;SDS011;61288;53.446;-2.266;2022-12-29T06:44:19;3.20;;;0.75;;
73100;SDS011;61288;53.446;-2.266;2022-12-29T06:46:45;4.68;;;0.90;;
73100;SDS011;61288;53.446;-2.266;2022-12-29T06:49:10;5.50;;;1.08;;
73100;SDS011;61288;53.446;-2.266;2022-12-29T06:51:36;3.80;;;0.68;;
73100;SDS011;61288;53.446;-2.266;2022-12-29T06:54:01;4.93;;;0.88;;
73100;SDS011;61288;53.446;-2.266;2022-12-29T06:56:27;1.88;;;0.73;;
73100;SDS011;61288;53.446;-2.266;2022-12-29T06:58:52;1.42;;;0.70;;
73100;SDS011;61288;53.446;-2.266;2022-12-29T07:01:18;6.22;;;1.17;;
73100;SDS011;61288;53.446;-2.266;2022-12-29T07:03:46;3.08;;;0.93;;
73100;SDS011;61288;53.446;-2.266;2022-12-29T07:06:11;5.63;;;0.95;;
73100;SDS011;61288;53.446;-2.266;2022-12-29T07:08:37;3.70;;;0.98;;
73100;SDS011;61288;53.446;-2.266;2022-12-29T07:11:03;5.75;;;0.80;;
73100;SDS011;61288;53.446;-2.266;2022-12-29T07:13:29;6.43;;;1.05;;
73100;SDS011;61288;53.446;-2.266;2022-12-29T07:15:55;5.25;;;0.90;;
73100;SDS011;61288;53.446;-2.266;2022-12-29T07:18:20;5.43;;;0.90;;
73100;SDS011;61288;53.446;-2.266;2022-12-29T07:20:46;3.85;;;0.77;;
73100;SDS011;61288;53.446;-2.266;2022-12-29T07:23:11;6.47;;;1.10;;
73100;SDS011;61288;53.446;-2.266;2022-12-29T07:25:37;7.90;;;0.95;;
73100;SDS011;61288;53.446;-2.266;2022-12-29T07:28:02;9.13;;;1.67;;
73100;SDS011;61288;53.446;-2.266;2022-12-29T07:30:28;4.68;;;1.02;;
73100;SDS011;61288;53.446;-2.266;2022-12-29T07:32:54;2.45;;;0.80;;
73100;SDS011;61288;53.446;-2.266;2022-12-29T07:35:19;5.03;;;0.80;;
73100;SDS011;61288;53.446;-2.266;2022-12-29T07:37:45;3.05;;;0.73;;
73100;SDS011;61288;53.446;-2.266;2022-12-29T07:40:10;4.22;;;0.93;;
73100;SDS011;61288;53.446;-2.266;2022-12-29T07:42:36;3.20;;;0.80;;
73100;SDS011;61288;53.446;-2.266;2022-12-29T07:45:01;5.32;;;0.95;;
73100;SDS011;61288;53.446;-2.266;2022-12-29T07:47:27;7.18;;;0.93;;
73100;SDS011;61288;53.446;-2.266;2022-12-29T07:49:53;6.63;;;0.95;;
73100;SDS011;61288;53.446;-2.266;2022-12-29T07:52:18;3.80;;;1.15;;
73100;SDS011;61288;53.446;-2.266;2022-12-29T07:54:44;3.60;;;1.23;;
73100;SDS011;61288;53.446;-2.266;2022-12-29T07:57:10;2.55;;;0.85;;
73100;SDS011;61288;53.446;-2.266;2022-12-29T07:59:35;6.90;;;1.13;;
73100;SDS011;61288;53.446;-2.266;2022-12-29T08:02:01;2.78;;;0.70;;
73100;SDS011;61288;53.446;-2.266;2022-12-29T08:04:26;3.65;;;0.90;;
73100;SDS011;61288;53.446;-2.266;2022-12-29T08:06:52;3.22;;;1.00;;
73100;SDS011;61288;53.446;-2.266;2022-12-29T08:09:17;5.50;;;0.90;;
73100;SDS011;61288;53.446;-2.266;2022-12-29T08:11:43;4.47;;;1.20;;
73100;SDS011;61288;53.446;-2.266;2022-12-29T08:14:09;5.30;;;0.73;;
73100;SDS011;61288;53.446;-2.266;2022-12-29T08:16:35;7.15;;;1.13;;
73100;SDS011;61288;53.446;-2.266;2022-12-29T08:19:01;4.85;;;0.90;;
73100;SDS011;61288;53.446;-2.266;2022-12-29T08:21:27;3.28;;;0.77;;
73100;SDS011;61288;53.446;-2.266;2022-12-29T08:23:53;6.95;;;0.90;;
73100;SDS011;61288;53.446;-2.266;2022-12-29T08:26:19;4.53;;;0.77;;
73100;SDS011;61288;53.446;-2.266;2022-12-29T08:28:44;7.80;;;1.10;;
73100;SDS011;61288;53.446;-2.266;2022-12-29T08:31:10;4.82;;;1.13;;
73100;SDS011;61288;53.446;-2.266;2022-12-29T08:33:35;3.70;;;0.95;;
73100;SDS011;61288;53.446;-2.266;2022-12-29T08:36:01;9.35;;;1.10;;
73100;SDS011;61288;53.446;-2.266;2022-12-29T08:38:29;6.70;;;1.27;;
73100;SDS011;61288;53.446;-2.266;2022-12-29T08:40:56;2.30;;;0.75;;
73100;SDS011;61288;53.446;-2.266;2022-12-29T08:43:23;3.97;;;1.00;;
73100;SDS011;61288;53.446;-2.266;2022-12-29T08:45:48;4.88;;;1.00;;
73100;SDS011;61288;53.446;-2.266;2022-12-29T08:48:14;5.05;;;1.10;;
73100;SDS011;61288;53.446;-2.266;2022-12-29T08:50:43;5.65;;;1.00;;
73100;SDS011;61288;53.446;-2.266;2022-12-29T08:53:09;2.88;;;0.80;;
73100;SDS011;61288;53.446;-2.266;2022-12-29T08:55:35;3.00;;;0.90;;
73100;SDS011;61288;53.446;-2.266;2022-12-29T08:58:01;9.35;;;1.30;;
73100;SDS011;61288;53.446;-2.266;2022-12-29T09:00:26;3.97;;;0.88;;
73100;SDS011;61288;53.446;-2.266;2022-12-29T09:02:51;5.85;;;1.17;;
73100;SDS011;61288;53.446;-2.266;2022-12-29T09:05:17;6.38;;;1.38;;
73100;SDS011;61288;53.446;-2.266;2022-12-29T09:07:42;3.92;;;0.90;;
73100;SDS011;61288;53.446;-2.266;2022-12-29T09:10:08;3.90;;;0.95;;
73100;SDS011;61288;53.446;-2.266;2022-12-29T09:12:34;7.68;;;1.08;;
73100;SDS011;61288;53.446;-2.266;2022-12-29T09:15:00;5.38;;;1.00;;
73100;SDS011;61288;53.446;-2.266;2022-12-29T09:17:25;3.63;;;1.00;;
73100;SDS011;61288;53.446;-2.266;2022-12-29T09:20:08;3.25;;;0.80;;
73100;SDS011;61288;53.446;-2.266;2022-12-29T09:22:35;3.40;;;1.20;;
73100;SDS011;61288;53.446;-2.266;2022-12-29T09:25:01;3.92;;;1.25;;
73100;SDS011;61288;53.446;-2.266;2022-12-29T09:27:26;5.68;;;1.40;;
73100;SDS011;61288;53.446;-2.266;2022-12-29T09:29:52;5.70;;;1.15;;
73100;SDS011;61288;53.446;-2.266;2022-12-29T09:32:17;4.57;;;0.95;;
73100;SDS011;61288;53.446;-2.266;2022-12-29T09:34:43;7.55;;;1.27;;
73100;SDS011;61288;53.446;-2.266;2022-12-29T09:37:08;4.40;;;1.17;;
73100;SDS011;61288;53.446;-2.266;2022-12-29T09:39:34;6.43;;;0.93;;
73100;SDS011;61288;53.446;-2.266;2022-12-29T09:47:16;6.53;;;1.27;;
73100;SDS011;61288;53.446;-2.266;2022-12-29T09:49:45;7.20;;;1.15;;
73100;SDS011;61288;53.446;-2.266;2022-12-29T09:52:26;3.05;;;0.90;;
73100;SDS011;61288;53.446;-2.266;2022-12-29T09:54:57;7.80;;;1.20;;
73100;SDS011;61288;53.446;-2.266;2022-12-29T09:57:27;5.28;;;1.40;;
73100;SDS011;61288;53.446;-2.266;2022-12-29T10:00:01;5.95;;;1.20;;
73100;SDS011;61288;53.446;-2.266;2022-12-29T10:02:37;10.73;;;1.55;;
73100;SDS011;61288;53.446;-2.266;2022-12-29T10:08:40;10.30;;;1.25;;
73100;SDS011;61288;53.446;-2.266;2022-12-29T10:25:32;7.00;;;1.20;;
73100;SDS011;61288;53.446;-2.266;2022-12-29T10:28:14;9.20;;;1.73;;
73100;SDS011;61288;53.446;-2.266;2022-12-29T10:30:46;7.18;;;1.90;;
73100;SDS011;61288;53.446;-2.266;2022-12-29T10:33:21;13.02;;;1.80;;
73100;SDS011;61288;53.446;-2.266;2022-12-29T10:35:51;10.73;;;1.70;;
73100;SDS011;61288;53.446;-2.266;2022-12-29T10:43:50;13.30;;;2.03;;
73100;SDS011;61288;53.446;-2.266;2022-12-29T10:46:19;9.70;;;1.45;;
73100;SDS011;61288;53.446;-2.266;2022-12-29T10:48:59;11.48;;;1.55;;
73100;SDS011;61288;53.446;-2.266;2022-12-29T10:51:29;8.68;;;1.40;;
73100;SDS011;61288;53.446;-2.266;2022-12-29T10:57:32;9.93;;;1.60;;
73100;SDS011;61288;53.446;-2.266;2022-12-29T10:59:49;8.52;;;1.40;;
73100;SDS011;61288;53.446;-2.266;2022-12-29T11:07:40;12.02;;;2.08;;
73100;SDS011;61288;53.446;-2.266;2022-12-29T11:13:13;11.73;;;1.70;;
73100;SDS011;61288;53.446;-2.266;2022-12-29T11:15:44;9.93;;;1.90;;
73100;SDS011;61288;53.446;-2.266;2022-12-29T11:20:54;11.43;;;1.80;;
73100;SDS011;61288;53.446;-2.266;2022-12-29T11:26:11;7.72;;;1.60;;
73100;SDS011;61288;53.446;-2.266;2022-12-29T11:29:03;14.15;;;1.40;;
73100;SDS011;61288;53.446;-2.266;2022-12-29T11:31:43;5.13;;;1.63;;
73100;SDS011;61288;53.446;-2.266;2022-12-29T11:34:17;11.07;;;1.30;;
73100;SDS011;61288;53.446;-2.266;2022-12-29T11:36:51;9.13;;;1.40;;
73100;SDS011;61288;53.446;-2.266;2022-12-29T11:39:30;7.75;;;1.40;;
73100;SDS011;61288;53.446;-2.266;2022-12-29T11:42:02;11.48;;;1.77;;
73100;SDS011;61288;53.446;-2.266;2022-12-29T11:44:31;10.88;;;1.95;;
73100;SDS011;61288;53.446;-2.266;2022-12-29T11:47:03;7.82;;;1.33;;
73100;SDS011;61288;53.446;-2.266;2022-12-29T11:49:30;12.40;;;1.25;;
73100;SDS011;61288;53.446;-2.266;2022-12-29T11:51:56;13.32;;;1.40;;
73100;SDS011;61288;53.446;-2.266;2022-12-29T11:54:23;9.88;;;1.60;;
73100;SDS011;61288;53.446;-2.266;2022-12-29T11:56:52;11.90;;;2.05;;
73100;SDS011;61288;53.446;-2.266;2022-12-29T12:02:03;9.00;;;1.67;;
73100;SDS011;61288;53.446;-2.266;2022-12-29T12:04:43;8.75;;;1.55;;
73100;SDS011;61288;53.446;-2.266;2022-12-29T12:07:16;10.20;;;1.60;;
73100;SDS011;61288;53.446;-2.266;2022-12-29T12:14:58;8.52;;;1.70;;
73100;SDS011;61288;53.446;-2.266;2022-12-29T12:17:33;8.77;;;1.80;;
73100;SDS011;61288;53.446;-2.266;2022-12-29T12:34:00;8.32;;;1.80;;
73100;SDS011;61288;53.446;-2.266;2022-12-29T12:50:31;9.10;;;1.35;;
73100;SDS011;61288;53.446;-2.266;2022-12-29T13:01:34;8.20;;;1.45;;
73100;SDS011;61288;53.446;-2.266;2022-12-29T13:18:06;10.32;;;1.65;;
73100;SDS011;61288;53.446;-2.266;2022-12-29T13:23:22;16.23;;;2.22;;
73100;SDS011;61288;53.446;-2.266;2022-12-29T13:26:32;12.35;;;1.30;;
73100;SDS011;61288;53.446;-2.266;2022-12-29T13:38:00;8.43;;;1.80;;
73100;SDS011;61288;53.446;-2.266;2022-12-29T13:40:32;9.68;;;1.67;;
73100;SDS011;61288;53.446;-2.266;2022-12-29T13:43:04;8.23;;;1.38;;
73100;SDS011;61288;53.446;-2.266;2022-12-29T13:45:31;14.13;;;1.70;;
73100;SDS011;61288;53.446;-2.266;2022-12-29T13:50:28;9.00;;;1.60;;
73100;SDS011;61288;53.446;-2.266;2022-12-29T13:53:15;10.45;;;1.70;;
73100;SDS011;61288;53.446;-2.266;2022-12-29T13:55:58;9.98;;;1.48;;
73100;SDS011;61288;53.446;-2.266;2022-12-29T14:01:11;9.88;;;1.95;;
73100;SDS011;61288;53.446;-2.266;2022-12-29T14:04:01;7.93;;;1.33;;
73100;SDS011;61288;53.446;-2.266;2022-12-29T14:06:34;11.73;;;1.75;;
73100;SDS011;61288;53.446;-2.266;2022-12-29T14:09:06;8.85;;;1.88;;
73100;SDS011;61288;53.446;-2.266;2022-12-29T14:11:53;11.32;;;2.55;;
73100;SDS011;61288;53.446;-2.266;2022-12-29T14:14:23;9.18;;;1.48;;
73100;SDS011;61288;53.446;-2.266;2022-12-29T14:17:10;9.13;;;1.90;;
73100;SDS011;61288;53.446;-2.266;2022-12-29T14:19:39;16.48;;;2.03;;
73100;SDS011;61288;53.446;-2.266;2022-12-29T14:22:07;7.93;;;1.60;;
73100;SDS011;61288;53.446;-2.266;2022-12-29T14:42:43;11.32;;;1.55;;
73100;SDS011;61288;53.446;-2.266;2022-12-29T14:47:41;5.97;;;1.50;;
73100;SDS011;61288;53.446;-2.266;2022-12-29T14:50:13;11.70;;;1.20;;
73100;SDS011;61288;53.446;-2.266;2022-12-29T14:58:04;7.97;;;1.67;;
73100;SDS011;61288;53.446;-2.266;2022-12-29T15:00:38;10.65;;;1.65;;
73100;SDS011;61288;53.446;-2.266;2022-12-29T15:05:54;5.80;;;1.05;;
73100;SDS011;61288;53.446;-2.266;2022-12-29T15:08:27;6.97;;;1.40;;
73100;SDS011;61288;53.446;-2.266;2022-12-29T15:11:03;9.27;;;1.50;;
73100;SDS011;61288;53.446;-2.266;2022-12-29T15:13:36;11.18;;;1.33;;
73100;SDS011;61288;53.446;-2.266;2022-12-29T15:16:04;7.47;;;1.25;;
73100;SDS011;61288;53.446;-2.266;2022-12-29T15:18:45;6.88;;;1.30;;
73100;SDS011;61288;53.446;-2.266;2022-12-29T15:21:11;6.68;;;1.30;;
73100;SDS011;61288;53.446;-2.266;2022-12-29T15:23:39;11.30;;;1.67;;
73100;SDS011;61288;53.446;-2.266;2022-12-29T15:26:05;5.53;;;1.10;;
73100;SDS011;61288;53.446;-2.266;2022-12-29T15:28:40;7.65;;;1.75;;
73100;SDS011;61288;53.446;-2.266;2022-12-29T15:31:18;7.68;;;1.15;;
73100;SDS011;61288;53.446;-2.266;2022-12-29T15:33:53;8.57;;;1.30;;
73100;SDS011;61288;53.446;-2.266;2022-12-29T15:36:26;10.35;;;2.08;;
73100;SDS011;61288;53.446;-2.266;2022-12-29T15:38:53;5.78;;;1.30;;
73100;SDS011;61288;53.446;-2.266;2022-12-29T15:44:00;6.05;;;1.20;;
73100;SDS011;61288;53.446;-2.266;2022-12-29T15:46:29;12.18;;;2.03;;
73100;SDS011;61288;53.446;-2.266;2022-12-29T15:48:56;7.93;;;1.30;;
73100;SDS011;61288;53.446;-2.266;2022-12-29T15:51:30;5.95;;;1.45;;
73100;SDS011;61288;53.446;-2.266;2022-12-29T15:54:01;7.72;;;1.80;;
73100;SDS011;61288;53.446;-2.266;2022-12-29T15:56:31;5.38;;;1.40;;
73100;SDS011;61288;53.446;-2.266;2022-12-29T15:58:59;6.57;;;1.27;;
73100;SDS011;61288;53.446;-2.266;2022-12-29T16:03:59;6.25;;;1.75;;
73100;SDS011;61288;53.446;-2.266;2022-12-29T16:06:36;7.45;;;1.40;;
73100;SDS011;61288;53.446;-2.266;2022-12-29T16:09:05;9.75;;;1.70;;
73100;SDS011;61288;53.446;-2.266;2022-12-29T16:11:53;7.00;;;1.45;;
73100;SDS011;61288;53.446;-2.266;2022-12-29T16:15:05;5.10;;;1.45;;
73100;SDS011;61288;53.446;-2.266;2022-12-29T16:17:20;7.65;;;1.52;;
73100;SDS011;61288;53.446;-2.266;2022-12-29T16:20:02;11.60;;;1.40;;
73100;SDS011;61288;53.446;-2.266;2022-12-29T16:22:39;7.45;;;1.52;;
73100;SDS011;61288;53.446;-2.266;2022-12-29T16:28:02;7.20;;;1.67;;
73100;SDS011;61288;53.446;-2.266;2022-12-29T16:30:42;7.80;;;1.50;;
73100;SDS011;61288;53.446;-2.266;2022-12-29T16:33:28;13.27;;;2.20;;
73100;SDS011;61288;53.446;-2.266;2022-12-29T16:36:24;4.93;;;1.50;;
73100;SDS011;61288;53.446;-2.266;2022-12-29T16:38:50;5.40;;;1.80;;
73100;SDS011;61288;53.446;-2.266;2022-12-29T16:41:29;16.45;;;3.55;;
73100;SDS011;61288;53.446;-2.266;2022-12-29T16:44:11;11.30;;;2.60;;
73100;SDS011;61288;53.446;-2.266;2022-12-29T16:46:55;11.95;;;2.22;;
73100;SDS011;61288;53.446;-2.266;2022-12-29T16:49:31;12.40;;;2.25;;
73100;SDS011;61288;53.446;-2.266;2022-12-29T16:51:58;12.95;;;2.33;;
73100;SDS011;61288;53.446;-2.266;2022-12-29T16:54:25;12.10;;;2.85;;
73100;SDS011;61288;53.446;-2.266;2022-12-29T16:56:56;9.15;;;2.53;;
73100;SDS011;61288;53.446;-2.266;2022-12-29T16:59:27;7.82;;;2.30;;
73100;SDS011;61288;53.446;-2.266;2022-12-29T17:01:58;8.82;;;2.42;;
73100;SDS011;61288;53.446;-2.266;2022-12-29T17:04:26;13.15;;;2.20;;
73100;SDS011;61288;53.446;-2.266;2022-12-29T17:06:54;7.32;;;2.10;;
73100;SDS011;61288;53.446;-2.266;2022-12-29T17:09:21;8.98;;;2.17;;
73100;SDS011;61288;53.446;-2.266;2022-12-29T17:11:49;11.52;;;3.25;;
73100;SDS011;61288;53.446;-2.266;2022-12-29T17:16:52;9.75;;;2.70;;
73100;SDS011;61288;53.446;-2.266;2022-12-29T17:19:18;9.65;;;2.80;;
73100;SDS011;61288;53.446;-2.266;2022-12-29T17:21:48;11.65;;;3.30;;
73100;SDS011;61288;53.446;-2.266;2022-12-29T17:24:15;12.85;;;3.65;;
73100;SDS011;61288;53.446;-2.266;2022-12-29T17:26:45;11.07;;;3.00;;
73100;SDS011;61288;53.446;-2.266;2022-12-29T17:32:00;10.02;;;2.85;;
73100;SDS011;61288;53.446;-2.266;2022-12-29T17:34:27;10.85;;;3.17;;
73100;SDS011;61288;53.446;-2.266;2022-12-29T17:36:52;10.95;;;3.15;;
73100;SDS011;61288;53.446;-2.266;2022-12-29T17:39:18;11.40;;;2.88;;
73100;SDS011;61288;53.446;-2.266;2022-12-29T17:41:43;12.95;;;3.58;;
73100;SDS011;61288;53.446;-2.266;2022-12-29T17:44:13;14.32;;;2.88;;
73100;SDS011;61288;53.446;-2.266;2022-12-29T17:46:42;12.10;;;3.45;;
73100;SDS011;61288;53.446;-2.266;2022-12-29T17:49:11;8.35;;;2.90;;
73100;SDS011;61288;53.446;-2.266;2022-12-29T17:51:42;11.93;;;2.85;;
73100;SDS011;61288;53.446;-2.266;2022-12-29T17:54:17;9.05;;;2.70;;
73100;SDS011;61288;53.446;-2.266;2022-12-29T17:56:47;10.13;;;2.58;;
73100;SDS011;61288;53.446;-2.266;2022-12-29T17:59:13;10.05;;;2.50;;
73100;SDS011;61288;53.446;-2.266;2022-12-29T18:01:40;8.80;;;2.45;;
73100;SDS011;61288;53.446;-2.266;2022-12-29T18:04:09;11.82;;;2.70;;
73100;SDS011;61288;53.446;-2.266;2022-12-29T18:06:37;11.82;;;2.67;;
73100;SDS011;61288;53.446;-2.266;2022-12-29T18:09:02;11.07;;;2.70;;
73100;SDS011;61288;53.446;-2.266;2022-12-29T18:11:29;12.10;;;2.85;;
73100;SDS011;61288;53.446;-2.266;2022-12-29T18:13:56;13.82;;;2.78;;
73100;SDS011;61288;53.446;-2.266;2022-12-29T18:16:22;15.80;;;3.55;;
73100;SDS011;61288;53.446;-2.266;2022-12-29T18:18:48;11.20;;;2.80;;
73100;SDS011;61288;53.446;-2.266;2022-12-29T18:21:17;11.50;;;2.78;;
73100;SDS011;61288;53.446;-2.266;2022-12-29T18:23:44;13.02;;;3.28;;
73100;SDS011;61288;53.446;-2.266;2022-12-29T18:26:15;15.18;;;3.08;;
73100;SDS011;61288;53.446;-2.266;2022-12-29T18:28:47;11.63;;;3.67;;
73100;SDS011;61288;53.446;-2.266;2022-12-29T18:31:25;14.82;;;3.63;;